createdAt,value
2019-03-26T00:01:06.337Z,74.96
2019-03-26T00:06:11.214Z,75.93
2019-03-26T00:11:15.964Z,76.27
2019-03-26T00:16:20.717Z,76.53
2019-03-26T00:21:25.477Z,76.11
2019-03-26T00:26:30.214Z,75.75
2019-03-26T00:31:35.054Z,76.48
2019-03-26T00:36:39.788Z,76.46
2019-03-26T00:41:44.510Z,76.85
2019-03-26T00:46:49.235Z,77.12
2019-03-26T00:51:53.967Z,77.00
2019-03-26T00:56:58.711Z,76.86
2019-03-26T01:02:03.451Z,77.34
2019-03-26T01:07:08.209Z,77.72
2019-03-26T01:12:12.922Z,78.27
2019-03-26T01:17:17.780Z,78.25
2019-03-26T01:22:22.523Z,78.17
2019-03-26T01:27:27.360Z,78.40
2019-03-26T01:32:32.186Z,79.08
2019-03-26T01:37:36.919Z,79.82
2019-03-26T01:42:41.655Z,79.93
2019-03-26T01:47:46.421Z,79.95
2019-03-26T01:52:51.167Z,79.62
2019-03-26T01:57:56.093Z,79.29
2019-03-26T02:03:00.828Z,79.97
2019-03-26T02:08:05.584Z,79.59
2019-03-26T02:13:10.333Z,79.60
2019-03-26T02:18:15.058Z,80.17
2019-03-26T02:23:19.806Z,81.12
2019-03-26T02:28:24.540Z,80.54
2019-03-26T02:33:29.281Z,80.87
2019-03-26T02:38:34.055Z,80.72
2019-03-26T02:43:38.799Z,80.40
2019-03-26T02:48:43.539Z,80.42
2019-03-26T02:53:48.294Z,80.30
2019-03-26T02:58:53.217Z,80.76
2019-03-26T03:03:57.941Z,80.53
2019-03-26T03:09:04.329Z,80.37
2019-03-26T03:14:09.063Z,80.10
2019-03-26T03:19:15.938Z,79.87
2019-03-26T03:24:20.253Z,79.99
2019-03-26T03:29:24.999Z,79.68
2019-03-26T03:34:29.749Z,79.32
2019-03-26T03:39:34.490Z,78.89
2019-03-26T03:44:39.234Z,79.09
2019-03-26T03:49:44.371Z,78.51
2019-03-26T03:54:51.213Z,78.42
2019-03-26T03:59:58.060Z,78.29
2019-03-26T04:05:02.798Z,78.06
2019-03-26T04:10:08.002Z,77.71
2019-03-26T04:15:12.736Z,77.37
2019-03-26T04:20:17.473Z,77.55
2019-03-26T04:25:22.192Z,77.25
2019-03-26T04:30:31.308Z,76.98
2019-03-26T04:35:36.082Z,77.35
2019-03-26T04:40:40.837Z,77.12
2019-03-26T04:45:45.605Z,77.30
2019-03-26T04:50:50.358Z,77.03
2019-03-26T04:55:55.144Z,77.29
2019-03-26T05:00:59.906Z,77.39
2019-03-26T05:06:04.775Z,78.18
2019-03-26T05:11:09.548Z,78.31
2019-03-26T05:16:14.317Z,79.21
2019-03-26T05:21:19.083Z,79.48
2019-03-26T05:26:23.851Z,79.18
2019-03-26T05:31:28.629Z,80.10
2019-03-26T05:36:33.400Z,79.94
2019-03-26T05:41:38.157Z,81.28
2019-03-26T05:46:42.925Z,82.04
2019-03-26T05:51:47.702Z,82.70
2019-03-26T05:56:52.469Z,83.00
2019-03-26T06:01:57.238Z,82.92
2019-03-26T06:07:04.966Z,83.34
2019-03-26T06:12:08.530Z,82.20
2019-03-26T06:17:13.300Z,80.09
2019-03-26T06:22:18.073Z,78.34
2019-03-26T06:27:22.855Z,77.91
2019-03-26T06:32:27.720Z,77.48
2019-03-26T06:37:32.496Z,76.28
2019-03-26T06:42:37.272Z,75.27
2019-03-26T06:47:42.050Z,73.91
2019-03-26T06:52:46.808Z,73.51
2019-03-26T06:57:51.581Z,72.17
2019-03-26T07:02:56.348Z,72.22
2019-03-26T07:08:01.266Z,71.96
2019-03-26T07:13:06.058Z,70.60
2019-03-26T07:18:10.825Z,71.35
2019-03-26T07:23:15.686Z,70.62
2019-03-26T07:28:20.543Z,70.52
2019-03-26T07:33:25.463Z,70.28
2019-03-26T07:38:30.228Z,69.41
2019-03-26T07:43:35.050Z,68.54
2019-03-26T07:48:39.812Z,67.53
2019-03-26T07:53:44.563Z,66.69
2019-03-26T07:58:49.420Z,66.16
2019-03-26T08:03:54.201Z,66.61
2019-03-26T08:08:58.955Z,67.07
2019-03-26T08:14:03.724Z,65.77
2019-03-26T08:19:08.488Z,64.85
2019-03-26T08:24:13.229Z,64.84
2019-03-26T08:29:17.988Z,63.17
2019-03-26T08:34:22.864Z,61.93
2019-03-26T08:39:27.633Z,61.67
2019-03-26T08:44:32.778Z,61.65
2019-03-26T08:49:37.614Z,61.44
2019-03-26T08:54:42.404Z,61.24
2019-03-26T08:59:47.173Z,61.97
2019-03-26T09:04:52.043Z,59.15
2019-03-26T09:09:57.025Z,59.01
2019-03-26T09:15:01.834Z,58.41
2019-03-26T09:20:07.383Z,59.14
2019-03-26T09:25:12.533Z,58.17
2019-03-26T09:30:17.491Z,57.31
2019-03-26T09:35:23.729Z,56.39
2019-03-26T09:40:28.512Z,56.88
2019-03-26T09:45:33.280Z,56.05
2019-03-26T09:50:40.329Z,56.05
2019-03-26T09:55:45.089Z,54.44
2019-03-26T10:00:50.146Z,55.54
2019-03-26T10:05:55.149Z,56.69
2019-03-26T10:11:00.016Z,58.89
2019-03-26T10:16:04.792Z,60.53
2019-03-26T10:21:09.561Z,61.86
2019-03-26T10:26:14.346Z,60.28
2019-03-26T10:31:19.252Z,60.37
2019-03-26T10:36:24.016Z,58.97
2019-03-26T10:41:28.778Z,59.33
2019-03-26T10:46:33.531Z,59.43
2019-03-26T10:51:38.288Z,59.21
2019-03-26T10:56:43.071Z,60.88
2019-03-26T11:01:47.842Z,61.57
2019-03-26T11:06:52.709Z,62.70
2019-03-26T11:11:57.469Z,62.01
2019-03-26T11:17:02.320Z,60.79
2019-03-26T11:22:07.154Z,58.76
2019-03-26T11:27:11.924Z,58.58
2019-03-26T11:32:16.796Z,59.47
2019-03-26T11:37:21.559Z,58.40
2019-03-26T11:42:26.326Z,58.55
2019-03-26T11:47:31.079Z,58.00
2019-03-26T11:52:36.103Z,61.46
2019-03-26T11:57:40.867Z,65.85
2019-03-26T12:02:45.625Z,68.03
2019-03-26T12:07:50.475Z,73.43
2019-03-26T12:12:55.348Z,75.01
2019-03-26T12:18:00.194Z,74.13
2019-03-26T12:23:05.064Z,74.38
2019-03-26T12:28:09.824Z,74.68
2019-03-26T12:33:14.583Z,76.69
2019-03-26T12:38:22.966Z,75.76
2019-03-26T12:43:27.818Z,75.71
2019-03-26T12:48:32.571Z,71.37
2019-03-26T12:53:37.341Z,67.56
2019-03-26T12:58:42.235Z,69.60
2019-03-26T13:03:47.013Z,67.35
2019-03-26T13:08:51.762Z,67.36
2019-03-26T13:13:56.825Z,67.44
2019-03-26T13:19:01.714Z,68.65
2019-03-26T13:24:07.610Z,67.98
2019-03-26T13:29:13.641Z,62.03
2019-03-26T13:34:18.405Z,64.01
2019-03-26T13:39:23.172Z,63.71
2019-03-26T13:44:27.977Z,60.95
2019-03-26T13:49:32.736Z,60.46
2019-03-26T13:54:37.510Z,63.88
2019-03-26T13:59:42.272Z,65.10
2019-03-26T14:04:47.039Z,68.30
2019-03-26T14:09:51.803Z,70.16
2019-03-26T14:14:56.744Z,65.54
2019-03-26T14:20:01.615Z,65.81
2019-03-26T14:25:06.807Z,65.58
2019-03-26T14:30:13.705Z,64.15
2019-03-26T14:35:18.465Z,64.36
2019-03-26T14:40:23.362Z,63.87
2019-03-26T14:45:28.122Z,62.82
2019-03-26T14:50:32.894Z,60.13
2019-03-26T14:55:38.746Z,60.42
2019-03-26T15:00:43.545Z,61.19
2019-03-26T15:05:48.418Z,60.38
2019-03-26T15:10:53.179Z,58.63
2019-03-26T15:15:57.948Z,59.36
2019-03-26T15:21:02.839Z,54.59
2019-03-26T15:26:07.710Z,53.49
2019-03-26T15:31:12.467Z,52.04
2019-03-26T15:36:17.295Z,48.64
2019-03-26T15:41:22.270Z,47.98
2019-03-26T15:46:27.284Z,46.11
2019-03-26T15:51:32.178Z,46.62
2019-03-26T15:56:36.939Z,46.27
2019-03-26T16:01:41.890Z,46.93
2019-03-26T16:06:46.630Z,47.80
2019-03-26T16:11:51.411Z,48.40
2019-03-26T16:16:56.258Z,48.81
2019-03-26T16:22:01.023Z,49.02
2019-03-26T16:27:05.894Z,49.33
2019-03-26T16:32:10.662Z,49.39
2019-03-26T16:37:15.430Z,49.92
2019-03-26T16:42:20.330Z,50.31
2019-03-26T16:47:25.122Z,51.02
2019-03-26T16:52:29.900Z,51.02
2019-03-26T16:57:34.676Z,51.05
2019-03-26T17:02:39.550Z,51.94
2019-03-26T17:07:44.334Z,52.92
2019-03-26T17:12:49.116Z,53.16
2019-03-26T17:17:53.928Z,52.99
2019-03-26T17:22:58.810Z,53.17
2019-03-26T17:28:03.570Z,53.93
2019-03-26T17:33:08.408Z,54.25
2019-03-26T17:38:13.346Z,54.03
2019-03-26T17:43:18.194Z,53.90
2019-03-26T17:48:22.964Z,53.34
2019-03-26T17:53:27.755Z,54.54
2019-03-26T17:58:32.763Z,54.42
2019-03-26T18:03:37.852Z,54.37
2019-03-26T18:08:42.619Z,54.09
2019-03-26T18:13:47.717Z,53.31
2019-03-26T18:18:55.037Z,53.51
2019-03-26T18:23:59.131Z,52.91
2019-03-26T18:29:03.934Z,53.03
2019-03-26T18:34:08.714Z,52.52
2019-03-26T18:39:13.623Z,52.00
2019-03-26T18:44:18.402Z,51.80
2019-03-26T18:49:23.191Z,52.24
2019-03-26T18:54:28.155Z,52.17
2019-03-26T18:59:32.953Z,52.82
2019-03-26T19:04:37.833Z,53.11
2019-03-26T19:09:42.614Z,53.48
2019-03-26T19:14:47.393Z,53.71
2019-03-26T19:19:52.226Z,54.33
2019-03-26T19:24:57.035Z,54.55
2019-03-26T19:30:01.866Z,55.44
2019-03-26T19:35:07.537Z,57.04
2019-03-26T19:40:12.494Z,57.54
2019-03-26T19:45:17.912Z,58.06
2019-03-26T19:50:22.943Z,57.89
2019-03-26T19:55:27.918Z,57.68
2019-03-26T20:00:33.589Z,58.49
2019-03-26T20:05:38.889Z,58.42
2019-03-26T20:10:43.983Z,58.84
2019-03-26T20:15:49.138Z,59.03
2019-03-26T20:20:55.414Z,59.31
2019-03-26T20:26:00.927Z,59.36
2019-03-26T20:31:06.252Z,59.11
2019-03-26T20:36:11.427Z,59.03
2019-03-26T20:41:16.940Z,59.02
2019-03-26T20:46:22.230Z,58.88
2019-03-26T20:51:27.192Z,59.29
2019-03-26T20:56:33.659Z,59.38
2019-03-26T21:01:38.470Z,60.22
2019-03-26T21:06:43.253Z,60.47
2019-03-26T21:11:48.204Z,60.81
2019-03-26T21:16:52.979Z,60.86
2019-03-26T21:21:57.876Z,60.88
2019-03-26T21:27:02.661Z,61.21
2019-03-26T21:32:07.499Z,61.62
2019-03-26T21:37:12.290Z,62.50
2019-03-26T21:42:17.082Z,63.33
2019-03-26T21:47:22.167Z,64.16
2019-03-26T21:52:26.928Z,64.81
2019-03-26T21:57:31.693Z,65.75
2019-03-26T22:02:36.485Z,65.71
2019-03-26T22:07:41.263Z,65.80
2019-03-26T22:12:46.052Z,66.40
2019-03-26T22:17:50.813Z,67.27
2019-03-26T22:22:55.681Z,67.90
2019-03-26T22:28:00.474Z,68.13
2019-03-26T22:33:05.342Z,68.64
2019-03-26T22:38:10.106Z,68.82
2019-03-26T22:43:14.916Z,68.67
2019-03-26T22:48:19.670Z,68.87
2019-03-26T22:53:24.485Z,69.05
2019-03-26T22:58:29.245Z,68.99
2019-03-26T23:03:34.005Z,69.36
2019-03-26T23:08:38.754Z,69.85
2019-03-26T23:13:43.616Z,70.33
2019-03-26T23:18:48.391Z,70.74
2019-03-26T23:23:53.143Z,71.15
2019-03-26T23:28:57.891Z,71.77
2019-03-26T23:34:02.666Z,72.71
2019-03-26T23:39:08.040Z,73.59
2019-03-26T23:44:24.935Z,73.73
2019-03-26T23:49:19.294Z,73.69
2019-03-26T23:54:24.050Z,74.14
2019-03-26T23:59:28.819Z,74.22
